Huvudsida
METAR-TAF:

METAR-TAF

Flygplatser :

Puerto Princesa, Filippinerna

latitud: 09-44-32N, longitud: 118-45-31E, höjd: 22 m

Aktuellt väderrapport

Denna rapport gjordes för 1 timme och 34 minuter sedan, klockan 12:00 UTC
Vind 2 kt från sydost
Temperatur 31°C
Fuktighet 71%
Tryck 1009 hPa
Sikt 10 km eller mer
Få moln på en höjd av 1700 ft, Cumulonimbus.
Spridda moln på en höjd av 1900 ft

METAR: RPVP 271200Z 14002KT 9999 FEW017CB SCT019 31/25 Q1009 RK A2980 CB NW-N QDS W/ OCNL LTG

Tid: 21:34 (13:34 UTC)

Väderprognos

Denna rapport gjordes för 2 timmar och 34 minuter sedan, klockan 11:00 UTC
Prognos gäller från 27 kl. 12 UTC till 28 kl. 12 UTC
Vind 6 kt från ost
Sikt 10 km eller mer
Få moln på en höjd av 1900 ft
Blir
från 27 kl. 12 UTC till 27 kl. 14 UTC
Blir
från 28 kl. 00 UTC till 28 kl. 02 UTC
Vind 6 kt från ost

TAF: RPVP 271100Z 2712/2812 09006KT 9999 FEW019 BECMG 2712/2714 BECMG 2800/2802 09006KT

Aktuella väderrapporter och prognoser från 4000 flygplatser (METAR- och TAF-rapporter).

De tillgängliga stationerna syns som gula och röda prickar på kartan.

För musen över prickarna för att se namnen på stationerna.

Klicka sedan för att få väderrapporter och prognoser.

För att ändra kartan: Klicka på de gröna knapparna med ett svart kors på för att zooma in; den gröna knappen med ett streck på för att zooma ut; eller på de gröna pilarna för angränsande kartor.


METAR-TAF: